createdAt,value
2023-01-29T00:04:34.652Z,10.02
2023-01-29T00:09:38.455Z,7.72
2023-01-29T00:14:43.247Z,6.60
2023-01-29T00:24:50.003Z,7.28
2023-01-29T00:30:08.740Z,7.28
2023-01-29T00:35:12.878Z,6.32
2023-01-29T00:40:16.883Z,8.70
2023-01-29T00:45:21.954Z,8.30
2023-01-29T00:55:28.845Z,7.38
2023-01-29T01:00:33.838Z,9.48
2023-01-29T01:05:39.366Z,9.10
2023-01-29T01:10:42.969Z,5.82
2023-01-29T01:15:47.868Z,6.88
2023-01-29T01:25:56.336Z,9.20
2023-01-29T01:31:10.524Z,8.25
2023-01-29T01:36:14.056Z,9.13
2023-01-29T01:41:19.899Z,11.37
2023-01-29T01:46:25.855Z,10.07
2023-01-29T01:51:32.291Z,10.20
2023-01-29T01:56:42.040Z,9.65
2023-01-29T02:01:51.698Z,8.63
2023-01-29T02:07:13.420Z,8.18
2023-01-29T02:12:18.716Z,7.57
2023-01-29T02:17:23.953Z,7.75
2023-01-29T02:22:55.310Z,8.05
2023-01-29T02:28:34.275Z,6.20
2023-01-29T02:33:56.880Z,5.20
2023-01-29T02:39:11.059Z,6.22
2023-01-29T02:44:23.479Z,5.87
2023-01-29T02:49:34.956Z,6.63
2023-01-29T02:54:46.440Z,4.97
2023-01-29T02:59:57.095Z,5.32
2023-01-29T03:05:04.573Z,5.55
2023-01-29T03:10:14.340Z,6.07
2023-01-29T03:15:25.437Z,5.00
2023-01-29T03:20:41.676Z,4.47
2023-01-29T03:26:03.931Z,5.20
2023-01-29T03:31:29.383Z,4.93
2023-01-29T03:36:40.134Z,5.20
2023-01-29T03:41:50.457Z,5.20
2023-01-29T03:46:59.209Z,5.82
2023-01-29T03:52:08.579Z,4.22
2023-01-29T03:57:16.968Z,4.18
2023-01-29T04:02:28.239Z,6.25
2023-01-29T04:07:33.868Z,4.68
2023-01-29T04:12:42.865Z,6.55
2023-01-29T04:17:53.087Z,4.97
2023-01-29T04:22:56.592Z,4.97
2023-01-29T04:28:09.024Z,5.47
2023-01-29T04:33:23.458Z,4.72
2023-01-29T04:38:40.974Z,6.53
2023-01-29T04:43:57.301Z,5.20
2023-01-29T04:49:14.724Z,5.20
2023-01-29T04:54:27.407Z,4.85
2023-01-29T04:59:35.420Z,5.07
2023-01-29T05:04:42.724Z,6.70
2023-01-29T05:09:48.022Z,5.13
2023-01-29T05:14:53.366Z,5.05
2023-01-29T05:19:58.927Z,4.88
2023-01-29T05:25:02.346Z,5.03
2023-01-29T05:30:08.486Z,4.47
2023-01-29T05:35:14.228Z,5.75
2023-01-29T05:40:18.219Z,4.78
2023-01-29T05:45:22.354Z,4.35
2023-01-29T05:50:28.834Z,4.30
2023-01-29T05:55:32.292Z,3.65
2023-01-29T06:00:35.947Z,5.20
2023-01-29T06:05:41.274Z,6.18
2023-01-29T06:10:44.845Z,4.15
2023-01-29T06:15:48.258Z,4.13
2023-01-29T06:20:53.392Z,4.75
2023-01-29T06:26:01.483Z,3.97
2023-01-29T06:36:31.913Z,4.10
2023-01-29T06:41:36.051Z,4.28
2023-01-29T06:46:39.649Z,4.65
2023-01-29T06:51:44.913Z,4.32
2023-01-29T06:56:48.491Z,5.03
2023-01-29T07:01:52.201Z,5.10
2023-01-29T07:06:57.327Z,4.88
2023-01-29T07:12:00.921Z,5.65
2023-01-29T07:17:04.336Z,4.70
2023-01-29T07:22:09.394Z,4.72
2023-01-29T07:27:12.998Z,4.22
2023-01-29T07:32:16.637Z,5.65
2023-01-29T07:37:21.661Z,5.18
2023-01-29T07:42:25.109Z,4.07
2023-01-29T07:47:28.781Z,4.60
2023-01-29T07:52:34.949Z,5.55
2023-01-29T07:57:38.607Z,5.18
2023-01-29T08:02:42.439Z,6.57
2023-01-29T08:08:00.869Z,5.40
2023-01-29T08:13:09.484Z,5.00
2023-01-29T08:18:13.542Z,5.13
2023-01-29T08:23:18.452Z,3.95
2023-01-29T08:28:22.113Z,4.70
2023-01-29T08:33:38.719Z,4.03
2023-01-29T08:38:44.420Z,3.97
2023-01-29T08:43:47.919Z,4.32
2023-01-29T08:48:51.511Z,4.00
2023-01-29T08:53:56.431Z,4.97
2023-01-29T09:04:03.152Z,3.67
2023-01-29T09:09:08.357Z,4.57
2023-01-29T09:14:12.638Z,3.58
2023-01-29T09:19:16.241Z,4.15
2023-01-29T09:24:21.237Z,3.65
2023-01-29T09:34:28.077Z,3.25
2023-01-29T09:39:33.107Z,4.18
2023-01-29T09:44:51.097Z,3.08
2023-01-29T09:49:58.418Z,3.67
2023-01-29T09:55:08.540Z,3.42
2023-01-29T10:00:17.308Z,4.15
2023-01-29T10:05:37.112Z,3.58
2023-01-29T10:10:51.264Z,3.45
2023-01-29T10:16:18.772Z,4.00
2023-01-29T10:21:39.231Z,3.92
2023-01-29T10:26:44.331Z,3.33
2023-01-29T10:31:53.036Z,6.28
2023-01-29T10:36:57.839Z,3.38
2023-01-29T10:42:16.738Z,4.28
2023-01-29T10:47:40.828Z,2.80
2023-01-29T10:53:07.419Z,3.33
2023-01-29T10:58:22.484Z,4.28
2023-01-29T11:08:39.551Z,4.18
2023-01-29T11:13:50.147Z,3.47
2023-01-29T11:18:56.828Z,2.70
2023-01-29T11:24:09.008Z,5.60
2023-01-29T11:29:48.507Z,3.95
2023-01-29T11:34:58.969Z,4.80
2023-01-29T11:40:02.642Z,3.25
2023-01-29T11:45:27.076Z,3.30
2023-01-29T11:50:33.315Z,3.92
2023-01-29T11:55:50.239Z,4.63
2023-01-29T12:00:57.093Z,4.07
2023-01-29T12:06:04.348Z,4.13
2023-01-29T12:11:13.985Z,4.55
2023-01-29T12:16:28.126Z,3.75
2023-01-29T12:21:37.366Z,4.37
2023-01-29T12:26:48.533Z,4.90
2023-01-29T12:32:00.686Z,3.22
2023-01-29T12:37:12.621Z,4.13
2023-01-29T12:42:20.981Z,6.78
2023-01-29T12:47:35.106Z,3.90
2023-01-29T12:52:43.149Z,5.00
2023-01-29T12:57:52.271Z,5.15
2023-01-29T13:03:05.492Z,5.35
2023-01-29T13:08:12.270Z,4.65
2023-01-29T13:13:31.902Z,4.07
2023-01-29T13:18:43.024Z,4.10
2023-01-29T13:23:49.871Z,4.97
2023-01-29T13:28:54.155Z,4.40
2023-01-29T13:34:08.898Z,4.63
2023-01-29T13:39:22.409Z,3.92
2023-01-29T13:44:29.557Z,4.07
2023-01-29T13:49:39.232Z,5.60
2023-01-29T13:54:50.885Z,3.65
2023-01-29T13:59:56.757Z,5.07
2023-01-29T14:05:47.885Z,6.28
2023-01-29T14:11:37.162Z,5.75
2023-01-29T14:16:40.669Z,6.28
2023-01-29T14:21:51.824Z,6.95
2023-01-29T14:26:57.815Z,8.45
2023-01-29T14:32:10.940Z,5.78
2023-01-29T14:37:30.431Z,6.68
2023-01-29T14:42:37.611Z,5.90
2023-01-29T14:48:01.262Z,6.15
2023-01-29T14:53:12.327Z,6.18
2023-01-29T14:58:20.055Z,5.82
2023-01-29T15:03:33.960Z,6.13
2023-01-29T15:08:42.668Z,8.30
2023-01-29T15:13:53.673Z,6.15
2023-01-29T15:19:08.684Z,7.50
2023-01-29T15:29:26.174Z,5.78
2023-01-29T15:34:29.772Z,7.07
2023-01-29T15:39:33.499Z,7.07
2023-01-29T15:44:45.439Z,7.45
2023-01-29T15:49:49.491Z,8.00
2023-01-29T15:54:53.302Z,6.97
2023-01-29T16:00:00.571Z,8.82
2023-01-29T16:05:05.064Z,7.72
2023-01-29T16:10:16.228Z,8.38
2023-01-29T16:15:30.007Z,7.75
2023-01-29T16:20:38.697Z,6.72
2023-01-29T16:25:42.184Z,9.98
2023-01-29T16:30:47.300Z,9.23
2023-01-29T16:35:53.373Z,8.48
2023-01-29T16:41:08.908Z,8.07
2023-01-29T16:46:20.769Z,8.00
2023-01-29T16:51:27.327Z,8.18
2023-01-29T16:56:34.255Z,9.05
2023-01-29T17:01:39.288Z,8.25
2023-01-29T17:06:45.901Z,7.20
2023-01-29T17:11:50.742Z,10.13
2023-01-29T17:22:04.788Z,8.45
2023-01-29T17:27:08.430Z,7.95
2023-01-29T17:32:13.733Z,7.38
2023-01-29T17:37:18.335Z,7.32
2023-01-29T17:42:21.941Z,7.30
2023-01-29T17:47:27.389Z,6.63
2023-01-29T17:52:32.308Z,7.05
2023-01-29T17:57:36.115Z,7.30
2023-01-29T18:02:40.868Z,8.05
2023-01-29T18:07:47.021Z,7.47
2023-01-29T18:12:50.354Z,6.75
2023-01-29T18:17:55.481Z,6.53
2023-01-29T18:22:58.872Z,7.00
2023-01-29T18:28:02.625Z,7.00
2023-01-29T18:33:07.389Z,5.50
2023-01-29T18:38:11.007Z,8.05
2023-01-29T18:43:15.831Z,6.38
2023-01-29T18:53:23.954Z,6.27
2023-01-29T18:58:36.553Z,7.68
2023-01-29T19:03:42.423Z,7.53
2023-01-29T19:08:46.000Z,6.32
2023-01-29T19:13:49.959Z,6.43
2023-01-29T19:18:56.404Z,6.57
2023-01-29T19:23:59.945Z,5.85
2023-01-29T19:29:03.805Z,5.55
2023-01-29T19:34:09.461Z,10.17
2023-01-29T19:39:15.029Z,6.35
2023-01-29T19:44:18.694Z,5.40
2023-01-29T19:49:23.627Z,9.55
2023-01-29T19:54:28.154Z,6.18
2023-01-29T19:59:31.705Z,6.53
2023-01-29T20:04:36.718Z,6.35
2023-01-29T20:09:40.318Z,6.82
2023-01-29T20:14:48.937Z,6.15
2023-01-29T20:19:53.949Z,5.85
2023-01-29T20:24:57.397Z,6.80
2023-01-29T20:30:00.983Z,7.05
2023-01-29T20:35:06.565Z,7.47
2023-01-29T20:40:11.780Z,11.13
2023-01-29T20:45:16.667Z,8.32
2023-01-29T20:50:21.741Z,9.13
2023-01-29T20:55:25.218Z,9.90
2023-01-29T21:00:28.981Z,11.25
2023-01-29T21:05:33.897Z,10.40
2023-01-29T21:15:40.659Z,9.43
2023-01-29T21:20:45.928Z,12.38
2023-01-29T21:25:49.855Z,13.15
2023-01-29T21:31:03.221Z,10.27
2023-01-29T21:36:10.310Z,10.35
2023-01-29T21:41:13.923Z,11.60
2023-01-29T21:46:17.442Z,12.27
2023-01-29T21:51:23.012Z,13.82
2023-01-29T21:56:26.592Z,11.57
2023-01-29T22:01:37.498Z,12.57
2023-01-29T22:06:43.727Z,11.10
2023-01-29T22:11:47.434Z,11.63
2023-01-29T22:16:50.744Z,12.85
2023-01-29T22:21:55.789Z,11.82
2023-01-29T22:26:59.364Z,9.63
2023-01-29T22:32:03.010Z,10.38
2023-01-29T22:37:08.011Z,11.45
2023-01-29T22:42:11.612Z,12.38
2023-01-29T22:47:15.374Z,11.25
2023-01-29T22:52:22.533Z,10.32
2023-01-29T22:57:26.097Z,11.00
2023-01-29T23:02:29.505Z,10.55
2023-01-29T23:07:34.513Z,10.18
2023-01-29T23:12:37.922Z,12.27
2023-01-29T23:17:41.247Z,10.88
2023-01-29T23:22:47.550Z,8.50
2023-01-29T23:32:54.273Z,12.13
2023-01-29T23:37:59.256Z,10.70
2023-01-29T23:43:02.651Z,9.25
2023-01-29T23:48:06.883Z,11.30
2023-01-29T23:53:11.633Z,9.27
2023-01-29T23:58:15.350Z,10.35
